sensor_id;sensor_type;location;lat;lon;timestamp;P1;durP1;ratioP1;P2;durP2;ratioP2
66012;SDS011;52783;50.502;8.190;2023-02-28T00:00:32;3.15;;;2.58;;
66012;SDS011;52783;50.502;8.190;2023-02-28T00:02:59;3.17;;;2.78;;
66012;SDS011;52783;50.502;8.190;2023-02-28T00:05:25;4.50;;;2.90;;
66012;SDS011;52783;50.502;8.190;2023-02-28T00:07:52;6.05;;;2.78;;
66012;SDS011;52783;50.502;8.190;2023-02-28T00:10:19;5.25;;;3.22;;
66012;SDS011;52783;50.502;8.190;2023-02-28T00:12:47;3.50;;;2.33;;
66012;SDS011;52783;50.502;8.190;2023-02-28T00:15:14;5.88;;;2.67;;
66012;SDS011;52783;50.502;8.190;2023-02-28T00:17:40;3.28;;;2.47;;
66012;SDS011;52783;50.502;8.190;2023-02-28T00:20:05;5.82;;;2.90;;
66012;SDS011;52783;50.502;8.190;2023-02-28T00:22:35;2.63;;;2.03;;
66012;SDS011;52783;50.502;8.190;2023-02-28T00:25:01;4.55;;;3.00;;
66012;SDS011;52783;50.502;8.190;2023-02-28T00:27:28;6.88;;;3.20;;
66012;SDS011;52783;50.502;8.190;2023-02-28T00:29:54;4.82;;;3.20;;
66012;SDS011;52783;50.502;8.190;2023-02-28T00:32:19;5.55;;;3.20;;
66012;SDS011;52783;50.502;8.190;2023-02-28T00:34:45;5.90;;;3.00;;
66012;SDS011;52783;50.502;8.190;2023-02-28T00:37:10;5.10;;;2.95;;
66012;SDS011;52783;50.502;8.190;2023-02-28T00:39:39;3.72;;;2.90;;
66012;SDS011;52783;50.502;8.190;2023-02-28T00:42:05;3.85;;;2.88;;
66012;SDS011;52783;50.502;8.190;2023-02-28T00:44:32;4.03;;;2.95;;
66012;SDS011;52783;50.502;8.190;2023-02-28T00:46:57;3.88;;;3.25;;
66012;SDS011;52783;50.502;8.190;2023-02-28T00:49:24;4.10;;;3.20;;
66012;SDS011;52783;50.502;8.190;2023-02-28T00:51:50;2.85;;;2.55;;
66012;SDS011;52783;50.502;8.190;2023-02-28T00:54:16;5.03;;;3.00;;
66012;SDS011;52783;50.502;8.190;2023-02-28T00:56:42;2.40;;;2.13;;
66012;SDS011;52783;50.502;8.190;2023-02-28T00:59:07;6.10;;;2.70;;
66012;SDS011;52783;50.502;8.190;2023-02-28T01:01:33;10.05;;;3.55;;
66012;SDS011;52783;50.502;8.190;2023-02-28T01:03:59;6.47;;;2.92;;
66012;SDS011;52783;50.502;8.190;2023-02-28T01:06:24;5.30;;;3.00;;
66012;SDS011;52783;50.502;8.190;2023-02-28T01:08:50;4.45;;;3.10;;
66012;SDS011;52783;50.502;8.190;2023-02-28T01:11:17;10.57;;;2.88;;
66012;SDS011;52783;50.502;8.190;2023-02-28T01:13:43;6.15;;;3.17;;
66012;SDS011;52783;50.502;8.190;2023-02-28T01:16:10;4.00;;;2.08;;
66012;SDS011;52783;50.502;8.190;2023-02-28T01:18:36;5.03;;;3.30;;
66012;SDS011;52783;50.502;8.190;2023-02-28T01:21:03;3.30;;;2.67;;
66012;SDS011;52783;50.502;8.190;2023-02-28T01:23:29;2.53;;;2.30;;
66012;SDS011;52783;50.502;8.190;2023-02-28T01:25:55;4.20;;;2.95;;
66012;SDS011;52783;50.502;8.190;2023-02-28T01:28:21;4.45;;;2.75;;
66012;SDS011;52783;50.502;8.190;2023-02-28T01:30:49;5.32;;;2.70;;
66012;SDS011;52783;50.502;8.190;2023-02-28T01:33:16;3.58;;;2.42;;
66012;SDS011;52783;50.502;8.190;2023-02-28T01:35:41;3.03;;;2.53;;
66012;SDS011;52783;50.502;8.190;2023-02-28T01:38:07;2.95;;;2.45;;
66012;SDS011;52783;50.502;8.190;2023-02-28T01:40:32;2.67;;;2.08;;
66012;SDS011;52783;50.502;8.190;2023-02-28T01:42:58;3.72;;;2.55;;
66012;SDS011;52783;50.502;8.190;2023-02-28T01:47:58;4.28;;;2.72;;
66012;SDS011;52783;50.502;8.190;2023-02-28T01:50:29;4.20;;;2.65;;
66012;SDS011;52783;50.502;8.190;2023-02-28T01:53:00;3.45;;;2.33;;
66012;SDS011;52783;50.502;8.190;2023-02-28T01:55:29;6.20;;;2.90;;
66012;SDS011;52783;50.502;8.190;2023-02-28T01:57:57;4.97;;;2.47;;
66012;SDS011;52783;50.502;8.190;2023-02-28T02:00:25;5.82;;;2.80;;
66012;SDS011;52783;50.502;8.190;2023-02-28T02:02:53;5.72;;;2.80;;
66012;SDS011;52783;50.502;8.190;2023-02-28T02:05:22;4.38;;;2.60;;
66012;SDS011;52783;50.502;8.190;2023-02-28T02:07:51;2.97;;;2.60;;
66012;SDS011;52783;50.502;8.190;2023-02-28T02:10:21;3.30;;;2.70;;
66012;SDS011;52783;50.502;8.190;2023-02-28T02:15:48;3.78;;;2.70;;
66012;SDS011;52783;50.502;8.190;2023-02-28T02:18:41;5.10;;;2.83;;
66012;SDS011;52783;50.502;8.190;2023-02-28T02:21:26;3.35;;;2.50;;
66012;SDS011;52783;50.502;8.190;2023-02-28T02:24:17;4.47;;;2.80;;
66012;SDS011;52783;50.502;8.190;2023-02-28T02:35:42;3.17;;;2.80;;
66012;SDS011;52783;50.502;8.190;2023-02-28T02:38:18;6.25;;;3.33;;
66012;SDS011;52783;50.502;8.190;2023-02-28T02:40:57;3.75;;;3.00;;
66012;SDS011;52783;50.502;8.190;2023-02-28T02:43:36;3.30;;;2.70;;
66012;SDS011;52783;50.502;8.190;2023-02-28T02:46:10;4.88;;;3.22;;
66012;SDS011;52783;50.502;8.190;2023-02-28T02:48:44;7.45;;;3.42;;
66012;SDS011;52783;50.502;8.190;2023-02-28T02:51:13;5.43;;;3.45;;
66012;SDS011;52783;50.502;8.190;2023-02-28T02:53:44;3.60;;;3.08;;
66012;SDS011;52783;50.502;8.190;2023-02-28T02:56:24;6.50;;;3.20;;
66012;SDS011;52783;50.502;8.190;2023-02-28T02:58:53;4.10;;;3.20;;
66012;SDS011;52783;50.502;8.190;2023-02-28T03:01:24;3.60;;;3.17;;
66012;SDS011;52783;50.502;8.190;2023-02-28T03:03:58;9.57;;;3.78;;
66012;SDS011;52783;50.502;8.190;2023-02-28T03:06:36;3.20;;;2.90;;
66012;SDS011;52783;50.502;8.190;2023-02-28T03:09:02;5.15;;;3.20;;
66012;SDS011;52783;50.502;8.190;2023-02-28T03:11:27;3.72;;;3.17;;
66012;SDS011;52783;50.502;8.190;2023-02-28T03:14:00;4.82;;;3.55;;
66012;SDS011;52783;50.502;8.190;2023-02-28T03:16:49;5.65;;;2.45;;
66012;SDS011;52783;50.502;8.190;2023-02-28T03:22:34;4.55;;;3.38;;
66012;SDS011;52783;50.502;8.190;2023-02-28T03:31:12;5.00;;;3.30;;
66012;SDS011;52783;50.502;8.190;2023-02-28T03:33:37;4.55;;;3.13;;
66012;SDS011;52783;50.502;8.190;2023-02-28T03:36:08;4.47;;;3.30;;
66012;SDS011;52783;50.502;8.190;2023-02-28T03:38:39;3.10;;;2.65;;
66012;SDS011;52783;50.502;8.190;2023-02-28T03:41:16;3.33;;;2.72;;
66012;SDS011;52783;50.502;8.190;2023-02-28T03:43:48;4.18;;;2.90;;
66012;SDS011;52783;50.502;8.190;2023-02-28T03:46:18;2.78;;;2.55;;
66012;SDS011;52783;50.502;8.190;2023-02-28T03:48:50;4.05;;;2.80;;
66012;SDS011;52783;50.502;8.190;2023-02-28T03:51:21;5.63;;;3.22;;
66012;SDS011;52783;50.502;8.190;2023-02-28T03:53:53;3.88;;;3.03;;
66012;SDS011;52783;50.502;8.190;2023-02-28T03:59:05;3.65;;;3.00;;
66012;SDS011;52783;50.502;8.190;2023-02-28T04:01:50;4.28;;;2.90;;
66012;SDS011;52783;50.502;8.190;2023-02-28T04:04:17;4.15;;;2.85;;
66012;SDS011;52783;50.502;8.190;2023-02-28T04:06:42;4.40;;;3.15;;
66012;SDS011;52783;50.502;8.190;2023-02-28T04:09:09;5.60;;;3.20;;
66012;SDS011;52783;50.502;8.190;2023-02-28T04:11:40;4.18;;;3.08;;
66012;SDS011;52783;50.502;8.190;2023-02-28T04:14:09;4.40;;;3.10;;
66012;SDS011;52783;50.502;8.190;2023-02-28T04:16:36;10.57;;;3.60;;
66012;SDS011;52783;50.502;8.190;2023-02-28T04:19:03;5.65;;;2.92;;
66012;SDS011;52783;50.502;8.190;2023-02-28T04:21:31;6.28;;;3.25;;
66012;SDS011;52783;50.502;8.190;2023-02-28T04:23:59;7.80;;;2.90;;
66012;SDS011;52783;50.502;8.190;2023-02-28T04:26:28;3.17;;;2.83;;
66012;SDS011;52783;50.502;8.190;2023-02-28T04:28:58;4.50;;;3.15;;
66012;SDS011;52783;50.502;8.190;2023-02-28T04:31:24;4.57;;;2.92;;
66012;SDS011;52783;50.502;8.190;2023-02-28T04:33:50;5.85;;;3.08;;
66012;SDS011;52783;50.502;8.190;2023-02-28T04:36:15;4.82;;;3.47;;
66012;SDS011;52783;50.502;8.190;2023-02-28T04:38:42;4.03;;;2.50;;
66012;SDS011;52783;50.502;8.190;2023-02-28T04:41:09;5.93;;;3.00;;
66012;SDS011;52783;50.502;8.190;2023-02-28T04:43:35;3.53;;;2.60;;
66012;SDS011;52783;50.502;8.190;2023-02-28T04:46:01;5.35;;;3.33;;
66012;SDS011;52783;50.502;8.190;2023-02-28T04:48:28;5.13;;;3.33;;
66012;SDS011;52783;50.502;8.190;2023-02-28T04:50:55;6.55;;;2.92;;
66012;SDS011;52783;50.502;8.190;2023-02-28T04:53:24;7.60;;;4.00;;
66012;SDS011;52783;50.502;8.190;2023-02-28T04:55:50;6.25;;;3.30;;
66012;SDS011;52783;50.502;8.190;2023-02-28T04:58:15;7.45;;;3.40;;
66012;SDS011;52783;50.502;8.190;2023-02-28T05:00:41;6.22;;;2.58;;
66012;SDS011;52783;50.502;8.190;2023-02-28T05:03:06;3.15;;;2.40;;
66012;SDS011;52783;50.502;8.190;2023-02-28T05:05:32;5.20;;;3.30;;
66012;SDS011;52783;50.502;8.190;2023-02-28T05:07:58;3.88;;;2.83;;
66012;SDS011;52783;50.502;8.190;2023-02-28T05:10:23;5.93;;;2.80;;
66012;SDS011;52783;50.502;8.190;2023-02-28T05:12:49;7.43;;;3.50;;
66012;SDS011;52783;50.502;8.190;2023-02-28T05:15:15;8.57;;;4.75;;
66012;SDS011;52783;50.502;8.190;2023-02-28T05:17:41;5.38;;;3.38;;
66012;SDS011;52783;50.502;8.190;2023-02-28T05:20:07;9.52;;;4.05;;
66012;SDS011;52783;50.502;8.190;2023-02-28T05:22:35;3.53;;;2.47;;
66012;SDS011;52783;50.502;8.190;2023-02-28T05:25:02;4.70;;;3.40;;
66012;SDS011;52783;50.502;8.190;2023-02-28T05:27:29;5.43;;;3.13;;
66012;SDS011;52783;50.502;8.190;2023-02-28T05:29:54;3.63;;;3.10;;
66012;SDS011;52783;50.502;8.190;2023-02-28T05:32:20;3.47;;;2.92;;
66012;SDS011;52783;50.502;8.190;2023-02-28T05:34:46;3.42;;;2.78;;
66012;SDS011;52783;50.502;8.190;2023-02-28T05:37:12;4.10;;;2.95;;
66012;SDS011;52783;50.502;8.190;2023-02-28T05:39:38;4.32;;;2.53;;
66012;SDS011;52783;50.502;8.190;2023-02-28T05:42:04;5.93;;;3.22;;
66012;SDS011;52783;50.502;8.190;2023-02-28T05:44:30;3.13;;;2.83;;
66012;SDS011;52783;50.502;8.190;2023-02-28T05:46:55;6.10;;;3.05;;
66012;SDS011;52783;50.502;8.190;2023-02-28T05:49:21;3.15;;;2.83;;
66012;SDS011;52783;50.502;8.190;2023-02-28T05:51:47;3.85;;;2.83;;
66012;SDS011;52783;50.502;8.190;2023-02-28T05:54:12;3.00;;;2.58;;
66012;SDS011;52783;50.502;8.190;2023-02-28T05:56:38;4.28;;;3.20;;
66012;SDS011;52783;50.502;8.190;2023-02-28T05:59:09;3.70;;;2.58;;
66012;SDS011;52783;50.502;8.190;2023-02-28T06:01:39;3.92;;;2.58;;
66012;SDS011;52783;50.502;8.190;2023-02-28T06:04:16;2.83;;;2.47;;
66012;SDS011;52783;50.502;8.190;2023-02-28T06:06:44;4.35;;;3.10;;
66012;SDS011;52783;50.502;8.190;2023-02-28T06:09:10;4.35;;;2.67;;
66012;SDS011;52783;50.502;8.190;2023-02-28T06:11:36;4.72;;;2.88;;
66012;SDS011;52783;50.502;8.190;2023-02-28T06:14:02;5.30;;;3.10;;
66012;SDS011;52783;50.502;8.190;2023-02-28T06:16:28;3.58;;;2.90;;
66012;SDS011;52783;50.502;8.190;2023-02-28T06:18:59;3.97;;;2.75;;
66012;SDS011;52783;50.502;8.190;2023-02-28T06:21:26;5.43;;;3.03;;
66012;SDS011;52783;50.502;8.190;2023-02-28T06:23:52;5.50;;;2.97;;
66012;SDS011;52783;50.502;8.190;2023-02-28T06:26:18;3.75;;;2.80;;
66012;SDS011;52783;50.502;8.190;2023-02-28T06:28:44;3.92;;;2.90;;
66012;SDS011;52783;50.502;8.190;2023-02-28T06:31:11;4.97;;;3.00;;
66012;SDS011;52783;50.502;8.190;2023-02-28T06:33:39;2.60;;;2.40;;
66012;SDS011;52783;50.502;8.190;2023-02-28T06:36:05;2.58;;;2.38;;
66012;SDS011;52783;50.502;8.190;2023-02-28T06:38:31;4.50;;;2.90;;
66012;SDS011;52783;50.502;8.190;2023-02-28T06:40:57;4.93;;;3.03;;
66012;SDS011;52783;50.502;8.190;2023-02-28T06:43:25;6.20;;;2.85;;
66012;SDS011;52783;50.502;8.190;2023-02-28T06:45:54;7.05;;;3.55;;
66012;SDS011;52783;50.502;8.190;2023-02-28T06:48:21;4.22;;;2.72;;
66012;SDS011;52783;50.502;8.190;2023-02-28T06:50:46;4.60;;;2.80;;
66012;SDS011;52783;50.502;8.190;2023-02-28T06:53:12;5.07;;;2.65;;
66012;SDS011;52783;50.502;8.190;2023-02-28T06:55:38;3.65;;;2.80;;
66012;SDS011;52783;50.502;8.190;2023-02-28T06:58:04;2.92;;;2.60;;
66012;SDS011;52783;50.502;8.190;2023-02-28T07:00:39;3.25;;;2.50;;
66012;SDS011;52783;50.502;8.190;2023-02-28T07:03:06;5.97;;;2.65;;
66012;SDS011;52783;50.502;8.190;2023-02-28T07:05:34;4.55;;;2.53;;
66012;SDS011;52783;50.502;8.190;2023-02-28T07:08:00;4.15;;;3.05;;
66012;SDS011;52783;50.502;8.190;2023-02-28T07:10:26;4.60;;;2.70;;
66012;SDS011;52783;50.502;8.190;2023-02-28T07:12:52;4.35;;;2.83;;
66012;SDS011;52783;50.502;8.190;2023-02-28T07:15:17;2.95;;;2.65;;
66012;SDS011;52783;50.502;8.190;2023-02-28T07:17:43;3.50;;;2.70;;
66012;SDS011;52783;50.502;8.190;2023-02-28T07:20:09;3.88;;;2.97;;
66012;SDS011;52783;50.502;8.190;2023-02-28T07:22:34;2.70;;;2.35;;
66012;SDS011;52783;50.502;8.190;2023-02-28T07:25:00;14.40;;;4.00;;
66012;SDS011;52783;50.502;8.190;2023-02-28T07:27:26;6.45;;;3.45;;
66012;SDS011;52783;50.502;8.190;2023-02-28T07:29:51;11.35;;;3.33;;
66012;SDS011;52783;50.502;8.190;2023-02-28T07:32:18;4.25;;;3.10;;
66012;SDS011;52783;50.502;8.190;2023-02-28T07:34:44;5.30;;;2.72;;
66012;SDS011;52783;50.502;8.190;2023-02-28T07:37:10;6.82;;;3.10;;
66012;SDS011;52783;50.502;8.190;2023-02-28T07:39:35;5.63;;;2.90;;
66012;SDS011;52783;50.502;8.190;2023-02-28T07:42:04;4.93;;;2.97;;
66012;SDS011;52783;50.502;8.190;2023-02-28T07:44:31;5.57;;;2.67;;
66012;SDS011;52783;50.502;8.190;2023-02-28T07:46:56;3.55;;;2.75;;
66012;SDS011;52783;50.502;8.190;2023-02-28T07:49:23;3.28;;;2.33;;
66012;SDS011;52783;50.502;8.190;2023-02-28T07:51:48;3.35;;;2.65;;
66012;SDS011;52783;50.502;8.190;2023-02-28T07:54:14;3.95;;;2.58;;
66012;SDS011;52783;50.502;8.190;2023-02-28T07:56:39;3.47;;;2.60;;
66012;SDS011;52783;50.502;8.190;2023-02-28T07:59:05;5.07;;;2.80;;
66012;SDS011;52783;50.502;8.190;2023-02-28T08:01:30;9.40;;;2.90;;
66012;SDS011;52783;50.502;8.190;2023-02-28T08:03:56;5.65;;;2.70;;
66012;SDS011;52783;50.502;8.190;2023-02-28T08:06:24;4.35;;;2.80;;
66012;SDS011;52783;50.502;8.190;2023-02-28T08:08:51;5.03;;;2.90;;
66012;SDS011;52783;50.502;8.190;2023-02-28T08:11:17;3.35;;;2.65;;
66012;SDS011;52783;50.502;8.190;2023-02-28T08:13:44;3.60;;;2.47;;
66012;SDS011;52783;50.502;8.190;2023-02-28T08:16:10;4.20;;;3.10;;
66012;SDS011;52783;50.502;8.190;2023-02-28T08:18:36;11.93;;;3.95;;
66012;SDS011;52783;50.502;8.190;2023-02-28T08:21:06;3.92;;;2.47;;
66012;SDS011;52783;50.502;8.190;2023-02-28T08:23:32;5.78;;;3.13;;
66012;SDS011;52783;50.502;8.190;2023-02-28T08:25:58;2.90;;;2.40;;
66012;SDS011;52783;50.502;8.190;2023-02-28T08:28:24;4.15;;;2.83;;
66012;SDS011;52783;50.502;8.190;2023-02-28T08:30:49;3.53;;;2.38;;
66012;SDS011;52783;50.502;8.190;2023-02-28T08:33:15;2.85;;;2.35;;
66012;SDS011;52783;50.502;8.190;2023-02-28T08:35:40;4.13;;;2.70;;
66012;SDS011;52783;50.502;8.190;2023-02-28T08:38:06;3.28;;;2.63;;
66012;SDS011;52783;50.502;8.190;2023-02-28T08:40:31;2.05;;;1.77;;
66012;SDS011;52783;50.502;8.190;2023-02-28T08:42:57;4.10;;;3.22;;
66012;SDS011;52783;50.502;8.190;2023-02-28T08:45:23;2.67;;;2.47;;
66012;SDS011;52783;50.502;8.190;2023-02-28T08:47:49;4.13;;;2.90;;
66012;SDS011;52783;50.502;8.190;2023-02-28T08:50:17;2.00;;;1.83;;
66012;SDS011;52783;50.502;8.190;2023-02-28T08:52:43;3.75;;;2.65;;
66012;SDS011;52783;50.502;8.190;2023-02-28T08:55:09;8.75;;;2.55;;
66012;SDS011;52783;50.502;8.190;2023-02-28T08:57:35;2.42;;;2.20;;
66012;SDS011;52783;50.502;8.190;2023-02-28T09:00:00;7.57;;;2.53;;
66012;SDS011;52783;50.502;8.190;2023-02-28T09:02:29;5.78;;;2.30;;
66012;SDS011;52783;50.502;8.190;2023-02-28T09:04:55;3.53;;;2.33;;
66012;SDS011;52783;50.502;8.190;2023-02-28T09:07:20;5.07;;;2.25;;
66012;SDS011;52783;50.502;8.190;2023-02-28T09:09:46;5.60;;;3.00;;
66012;SDS011;52783;50.502;8.190;2023-02-28T09:12:24;2.63;;;2.10;;
66012;SDS011;52783;50.502;8.190;2023-02-28T09:14:51;3.00;;;2.42;;
66012;SDS011;52783;50.502;8.190;2023-02-28T09:17:17;3.63;;;2.47;;
66012;SDS011;52783;50.502;8.190;2023-02-28T09:19:43;3.22;;;2.55;;
66012;SDS011;52783;50.502;8.190;2023-02-28T09:22:09;4.15;;;2.50;;
66012;SDS011;52783;50.502;8.190;2023-02-28T09:24:36;3.58;;;2.38;;
66012;SDS011;52783;50.502;8.190;2023-02-28T09:27:02;3.53;;;2.33;;
66012;SDS011;52783;50.502;8.190;2023-02-28T09:29:28;2.40;;;2.20;;
66012;SDS011;52783;50.502;8.190;2023-02-28T09:31:54;5.50;;;2.28;;
66012;SDS011;52783;50.502;8.190;2023-02-28T09:34:21;2.35;;;2.13;;
66012;SDS011;52783;50.502;8.190;2023-02-28T09:36:46;2.40;;;2.10;;
66012;SDS011;52783;50.502;8.190;2023-02-28T09:39:12;2.30;;;1.83;;
66012;SDS011;52783;50.502;8.190;2023-02-28T09:41:41;4.82;;;2.65;;
66012;SDS011;52783;50.502;8.190;2023-02-28T09:44:20;2.22;;;2.03;;
66012;SDS011;52783;50.502;8.190;2023-02-28T09:46:57;3.60;;;2.30;;
66012;SDS011;52783;50.502;8.190;2023-02-28T09:49:37;3.63;;;2.00;;
66012;SDS011;52783;50.502;8.190;2023-02-28T09:52:28;1.77;;;1.65;;
66012;SDS011;52783;50.502;8.190;2023-02-28T09:55:01;5.35;;;2.58;;
66012;SDS011;52783;50.502;8.190;2023-02-28T09:57:44;3.08;;;2.30;;
66012;SDS011;52783;50.502;8.190;2023-02-28T10:03:04;2.63;;;2.42;;
66012;SDS011;52783;50.502;8.190;2023-02-28T10:05:54;2.78;;;2.35;;
66012;SDS011;52783;50.502;8.190;2023-02-28T10:08:25;3.08;;;2.50;;
66012;SDS011;52783;50.502;8.190;2023-02-28T10:10:58;2.97;;;2.45;;
66012;SDS011;52783;50.502;8.190;2023-02-28T10:16:03;2.45;;;2.25;;
66012;SDS011;52783;50.502;8.190;2023-02-28T10:18:53;3.35;;;2.60;;
66012;SDS011;52783;50.502;8.190;2023-02-28T10:21:41;7.75;;;2.38;;
66012;SDS011;52783;50.502;8.190;2023-02-28T10:24:21;2.30;;;2.13;;
66012;SDS011;52783;50.502;8.190;2023-02-28T10:26:53;12.45;;;2.88;;
66012;SDS011;52783;50.502;8.190;2023-02-28T10:29:26;6.15;;;2.70;;
66012;SDS011;52783;50.502;8.190;2023-02-28T10:31:52;2.55;;;2.25;;
66012;SDS011;52783;50.502;8.190;2023-02-28T10:34:17;3.13;;;2.83;;
66012;SDS011;52783;50.502;8.190;2023-02-28T10:36:43;3.00;;;2.70;;
66012;SDS011;52783;50.502;8.190;2023-02-28T10:42:18;3.30;;;2.53;;
66012;SDS011;52783;50.502;8.190;2023-02-28T10:45:09;3.13;;;2.50;;
66012;SDS011;52783;50.502;8.190;2023-02-28T10:50:56;3.58;;;2.22;;
66012;SDS011;52783;50.502;8.190;2023-02-28T10:58:27;3.80;;;2.60;;
66012;SDS011;52783;50.502;8.190;2023-02-28T11:00:54;2.22;;;1.80;;
66012;SDS011;52783;50.502;8.190;2023-02-28T11:03:24;4.05;;;2.78;;
66012;SDS011;52783;50.502;8.190;2023-02-28T11:05:54;5.90;;;2.60;;
66012;SDS011;52783;50.502;8.190;2023-02-28T11:08:20;6.13;;;2.95;;
66012;SDS011;52783;50.502;8.190;2023-02-28T11:10:46;4.28;;;2.97;;
66012;SDS011;52783;50.502;8.190;2023-02-28T11:13:16;3.72;;;2.63;;
66012;SDS011;52783;50.502;8.190;2023-02-28T11:15:48;4.72;;;2.38;;
66012;SDS011;52783;50.502;8.190;2023-02-28T11:23:58;2.83;;;2.15;;
66012;SDS011;52783;50.502;8.190;2023-02-28T11:26:35;2.50;;;2.30;;
66012;SDS011;52783;50.502;8.190;2023-02-28T11:29:16;3.42;;;2.58;;
66012;SDS011;52783;50.502;8.190;2023-02-28T11:34:36;4.25;;;2.75;;
66012;SDS011;52783;50.502;8.190;2023-02-28T11:37:03;3.78;;;3.00;;
66012;SDS011;52783;50.502;8.190;2023-02-28T11:39:33;2.78;;;2.55;;
66012;SDS011;52783;50.502;8.190;2023-02-28T11:42:36;5.20;;;2.65;;
66012;SDS011;52783;50.502;8.190;2023-02-28T11:48:04;4.63;;;2.90;;
66012;SDS011;52783;50.502;8.190;2023-02-28T11:53:01;4.47;;;2.88;;
66012;SDS011;52783;50.502;8.190;2023-02-28T11:55:45;2.75;;;2.45;;
66012;SDS011;52783;50.502;8.190;2023-02-28T11:58:21;2.92;;;2.60;;
66012;SDS011;52783;50.502;8.190;2023-02-28T12:01:07;4.45;;;3.00;;
66012;SDS011;52783;50.502;8.190;2023-02-28T12:03:45;4.47;;;3.25;;
66012;SDS011;52783;50.502;8.190;2023-02-28T12:06:28;3.25;;;2.72;;
66012;SDS011;52783;50.502;8.190;2023-02-28T12:09:20;8.95;;;3.20;;
66012;SDS011;52783;50.502;8.190;2023-02-28T12:12:15;5.00;;;2.97;;
66012;SDS011;52783;50.502;8.190;2023-02-28T12:17:33;3.33;;;2.72;;
66012;SDS011;52783;50.502;8.190;2023-02-28T12:25:37;6.88;;;2.58;;
66012;SDS011;52783;50.502;8.190;2023-02-28T12:28:21;4.78;;;3.67;;
66012;SDS011;52783;50.502;8.190;2023-02-28T12:31:05;5.03;;;3.42;;
66012;SDS011;52783;50.502;8.190;2023-02-28T12:33:37;4.25;;;3.03;;
66012;SDS011;52783;50.502;8.190;2023-02-28T12:36:16;8.70;;;2.95;;
66012;SDS011;52783;50.502;8.190;2023-02-28T12:41:42;6.68;;;3.95;;
66012;SDS011;52783;50.502;8.190;2023-02-28T12:46:50;6.82;;;3.25;;
66012;SDS011;52783;50.502;8.190;2023-02-28T12:49:21;5.25;;;3.60;;
66012;SDS011;52783;50.502;8.190;2023-02-28T12:51:50;3.95;;;3.08;;
66012;SDS011;52783;50.502;8.190;2023-02-28T12:54:25;5.50;;;3.38;;
66012;SDS011;52783;50.502;8.190;2023-02-28T12:59:44;4.55;;;3.22;;
66012;SDS011;52783;50.502;8.190;2023-02-28T13:02:25;6.30;;;3.38;;
66012;SDS011;52783;50.502;8.190;2023-02-28T13:11:05;4.03;;;3.33;;
66012;SDS011;52783;50.502;8.190;2023-02-28T13:13:31;4.88;;;3.67;;
66012;SDS011;52783;50.502;8.190;2023-02-28T13:16:04;5.22;;;3.10;;
66012;SDS011;52783;50.502;8.190;2023-02-28T13:21:01;6.82;;;3.67;;
66012;SDS011;52783;50.502;8.190;2023-02-28T13:24:09;3.95;;;3.17;;
66012;SDS011;52783;50.502;8.190;2023-02-28T13:31:24;6.43;;;4.55;;
66012;SDS011;52783;50.502;8.190;2023-02-28T13:38:45;6.35;;;3.67;;
66012;SDS011;52783;50.502;8.190;2023-02-28T13:44:09;5.25;;;3.88;;
66012;SDS011;52783;50.502;8.190;2023-02-28T13:46:36;6.63;;;3.40;;
66012;SDS011;52783;50.502;8.190;2023-02-28T14:03:11;4.10;;;3.30;;
66012;SDS011;52783;50.502;8.190;2023-02-28T14:05:45;5.45;;;3.47;;
66012;SDS011;52783;50.502;8.190;2023-02-28T14:10:46;4.28;;;3.08;;
66012;SDS011;52783;50.502;8.190;2023-02-28T14:16:02;4.93;;;3.78;;
66012;SDS011;52783;50.502;8.190;2023-02-28T14:29:34;5.68;;;3.88;;
66012;SDS011;52783;50.502;8.190;2023-02-28T14:32:02;8.00;;;4.00;;
66012;SDS011;52783;50.502;8.190;2023-02-28T14:37:19;6.20;;;3.95;;
66012;SDS011;52783;50.502;8.190;2023-02-28T14:39:49;6.90;;;3.35;;
66012;SDS011;52783;50.502;8.190;2023-02-28T14:45:00;5.07;;;3.72;;
66012;SDS011;52783;50.502;8.190;2023-02-28T14:47:33;6.60;;;4.40;;
66012;SDS011;52783;50.502;8.190;2023-02-28T14:50:01;10.50;;;4.88;;
66012;SDS011;52783;50.502;8.190;2023-02-28T14:52:29;4.50;;;3.10;;
66012;SDS011;52783;50.502;8.190;2023-02-28T14:54:58;7.28;;;3.83;;
66012;SDS011;52783;50.502;8.190;2023-02-28T14:57:29;5.82;;;3.63;;
66012;SDS011;52783;50.502;8.190;2023-02-28T14:59:57;5.97;;;3.75;;
66012;SDS011;52783;50.502;8.190;2023-02-28T15:02:37;5.88;;;3.67;;
66012;SDS011;52783;50.502;8.190;2023-02-28T15:07:47;5.38;;;3.40;;
66012;SDS011;52783;50.502;8.190;2023-02-28T15:10:25;5.80;;;3.95;;
66012;SDS011;52783;50.502;8.190;2023-02-28T15:12:59;5.75;;;3.65;;
66012;SDS011;52783;50.502;8.190;2023-02-28T15:15:30;5.32;;;3.70;;
66012;SDS011;52783;50.502;8.190;2023-02-28T15:18:27;5.00;;;3.40;;
66012;SDS011;52783;50.502;8.190;2023-02-28T15:21:08;8.30;;;3.83;;
66012;SDS011;52783;50.502;8.190;2023-02-28T15:23:42;7.70;;;3.80;;
66012;SDS011;52783;50.502;8.190;2023-02-28T15:26:12;4.93;;;3.42;;
66012;SDS011;52783;50.502;8.190;2023-02-28T15:28:41;8.85;;;4.15;;
66012;SDS011;52783;50.502;8.190;2023-02-28T15:31:18;5.53;;;3.45;;
66012;SDS011;52783;50.502;8.190;2023-02-28T15:33:53;5.97;;;3.72;;
66012;SDS011;52783;50.502;8.190;2023-02-28T15:36:21;6.95;;;4.03;;
66012;SDS011;52783;50.502;8.190;2023-02-28T15:38:52;4.60;;;3.33;;
66012;SDS011;52783;50.502;8.190;2023-02-28T15:41:37;7.22;;;3.80;;
66012;SDS011;52783;50.502;8.190;2023-02-28T15:46:56;6.10;;;3.92;;
66012;SDS011;52783;50.502;8.190;2023-02-28T15:49:40;7.32;;;3.97;;
66012;SDS011;52783;50.502;8.190;2023-02-28T15:52:27;6.55;;;3.65;;
66012;SDS011;52783;50.502;8.190;2023-02-28T15:55:21;7.35;;;3.53;;
66012;SDS011;52783;50.502;8.190;2023-02-28T15:57:51;7.10;;;3.75;;
66012;SDS011;52783;50.502;8.190;2023-02-28T16:00:21;4.53;;;3.20;;
66012;SDS011;52783;50.502;8.190;2023-02-28T16:02:48;5.78;;;3.67;;
66012;SDS011;52783;50.502;8.190;2023-02-28T16:05:30;6.68;;;3.85;;
66012;SDS011;52783;50.502;8.190;2023-02-28T16:08:13;4.97;;;3.40;;
66012;SDS011;52783;50.502;8.190;2023-02-28T16:10:40;9.00;;;3.88;;
66012;SDS011;52783;50.502;8.190;2023-02-28T16:13:05;5.15;;;3.25;;
66012;SDS011;52783;50.502;8.190;2023-02-28T16:15:34;5.93;;;4.13;;
66012;SDS011;52783;50.502;8.190;2023-02-28T16:18:07;10.52;;;4.10;;
66012;SDS011;52783;50.502;8.190;2023-02-28T16:20:35;6.53;;;3.92;;
66012;SDS011;52783;50.502;8.190;2023-02-28T16:23:01;7.05;;;3.55;;
66012;SDS011;52783;50.502;8.190;2023-02-28T16:25:35;7.35;;;3.63;;
66012;SDS011;52783;50.502;8.190;2023-02-28T16:28:02;8.85;;;4.75;;
66012;SDS011;52783;50.502;8.190;2023-02-28T16:30:29;10.50;;;4.20;;
66012;SDS011;52783;50.502;8.190;2023-02-28T16:32:56;5.28;;;3.70;;
66012;SDS011;52783;50.502;8.190;2023-02-28T16:35:22;5.93;;;3.92;;
66012;SDS011;52783;50.502;8.190;2023-02-28T16:37:50;10.45;;;3.17;;
66012;SDS011;52783;50.502;8.190;2023-02-28T16:40:17;7.70;;;4.07;;
66012;SDS011;52783;50.502;8.190;2023-02-28T16:42:46;7.80;;;4.03;;
66012;SDS011;52783;50.502;8.190;2023-02-28T16:45:17;4.70;;;3.70;;
66012;SDS011;52783;50.502;8.190;2023-02-28T16:47:44;4.95;;;3.92;;
66012;SDS011;52783;50.502;8.190;2023-02-28T16:50:18;7.50;;;4.15;;
66012;SDS011;52783;50.502;8.190;2023-02-28T16:52:45;9.82;;;4.05;;
66012;SDS011;52783;50.502;8.190;2023-02-28T16:55:11;6.63;;;3.67;;
66012;SDS011;52783;50.502;8.190;2023-02-28T16:57:37;5.95;;;4.38;;
66012;SDS011;52783;50.502;8.190;2023-02-28T17:00:04;7.18;;;4.28;;
66012;SDS011;52783;50.502;8.190;2023-02-28T17:02:32;8.65;;;4.07;;
66012;SDS011;52783;50.502;8.190;2023-02-28T17:04:58;8.20;;;3.88;;
66012;SDS011;52783;50.502;8.190;2023-02-28T17:07:24;9.07;;;4.60;;
66012;SDS011;52783;50.502;8.190;2023-02-28T17:09:49;9.80;;;4.15;;
66012;SDS011;52783;50.502;8.190;2023-02-28T17:12:15;8.13;;;4.38;;
66012;SDS011;52783;50.502;8.190;2023-02-28T17:14:40;11.45;;;3.83;;
66012;SDS011;52783;50.502;8.190;2023-02-28T17:17:06;8.18;;;4.40;;
66012;SDS011;52783;50.502;8.190;2023-02-28T17:19:32;6.35;;;3.85;;